Walker Valley, NY (12588)

9:56 AM EDT on September 04, 2015 (GMT -0400)
Ice Caves Mountain | | Change Station
CLOSE
Current Station
Personal Weather Station
Location: Pine Bush, NY
Elevation: 1509 ft
Nearby Weather Stations

Elev 1509 ft 41.66 °N, 74.38 °W | Updated 17 minutes ago

Partly Cloudy
Partly Cloudy
72.5 °F
Feels Like 73 °F
N
1.7
Wind Variable Wind from SW

Today
High -- | Low -- °F
--% Chance of Precip.
Yesterday
High -- | Low -- °F
Precip. -- in
6:26 AM 7:26 PM
Waning Gibbous, 59% visible
Pressure 30.09 in
Visibility 10.0 miles
Clouds Few 4400 ft
Heat Index 73 °F
Dew Point 66 °F
Humidity 80%
Rainfall 0.00 in
Snow Depth Not available.
UV 4 out of 12
Pollen 9.00 out of 12
Air Quality Not available.
Flu Activity Not available.
METAR KMGJ 041354Z AUTO 04011KT 10SM FEW044 25/17 A3010 RMK AO2 SLP189 T02500172 TSNO
Pressure 30.09 in
Visibility 10.0 miles
Clouds Few 4400 ft
Heat Index 73 °F
Dew Point 66 °F
Humidity 80%
Rainfall 0.00 in
Snow Depth Not available.
UV 4 out of 12
Pollen 9.00 out of 12
Air Quality Not available.
Flu Activity Not available.
METAR KMGJ 041354Z AUTO 04011KT 10SM FEW044 25/17 A3010 RMK AO2 SLP189 T02500172 TSNO

10-Day Weather Forecast

×

Almanac

Astronomy

Sep. 04, 2015 Rise Set
Actual Time
Civil Twilight
Nautical Twilight
Astronomical Twilight
Moon
Length of Visible Light
Length of Day
Tomorrow will be .
, % of the Moon is Illuminated

Today's Extremes

State Highs State Lows

Community

WunderPhotos

Upload Photos

1,852,181 photos uploaded!

WunderBlogs® & News

Nearby

Air Quality

  Air Quality AQ Index Pollutant
Not available.

Snow Depth

Station Depth Elevation

Earthquake Activity

City Distance Mag. Time & Date
Minimum magnitude displayed is 2.5.

Coastal Water Temperatures

Place Temperature

Stations

Nearby Weather Stations

Station Location Temp. Windchill Dew Point Humidity Wind Precip. Elev Updated Type